Organ, New Mexico
Current Conditions -  °F | °C
As of 11:55 AM on Tuesday 27 Jan 2015 (Local Time) from KLRU Reporting Station
Clear Clear  
Wind Chill: 60°   Ceiling: Unl
Heat Index: 60°   Visibility: 10mi
Dew Point: 31°   Wind: 0mph
Humidity: 33%   Direction: NA
Pressure: 30.31"   Gusts: NA
Location:  32.43°N, 106.6°W
Report Text: KLRU 271855Z AUTO 00000KT 10SM CLR 16/M01 A3031 RMK AO2 T01561006
Loading
Personal Weather Stations






























Interactive Weather Map New forecast layout! Learn more

10-Day Weather Forecast

Advertisements
Track Severe Weather on mobile